Station: Lady Elliot Island  

  Atmospheric Gas Attenuation - ITU Rec 676-11   ----------------- dB/100km -----------------
Date Time Temp RH % AH g/m3 Dew Point Wind Direction Speed kph Gust kph Barometer mB Rainfall Since 9am 24GHz 47GHz 76GHz 122GHz 134GHz 241GHz
04/09 05:00 21.1 83 15.29 18.1 19 28 1021.1 0 33.4 35.2 64.1 169.1 180.2 624.9
04/09 04:49 21.2 85 15.75 18.6 17 20 1021 0 34.4 36.0 66.1 174.5 186.8 647.9
04/09 04:40 21.1 85 15.66 18.5 20 28 1020.7 0 34.2 35.9 65.7 173.6 185.6 644.0
04/09 04:30 21.1 84 15.48 18.3 20 28 1020.7 0 33.8 35.5 64.9 171.4 182.9 634.6
04/09 04:20 21 84 15.39 18.2 17 24 1020.7 0 33.6 35.4 64.6 170.5 181.8 630.7
04/09 04:10 21 84 15.39 18.2 17 26 1020.6 0 33.6 35.4 64.6 170.5 181.8 630.7
04/09 03:59 21.1 85 15.66 18.5 17 24 1020.6 0 34.2 35.9 65.7 173.6 185.6 643.9
04/09 03:50 21.1 84 15.48 18.3 17 26 1020.7 0 33.8 35.5 64.9 171.4 182.9 634.6
04/09 03:40 21.1 85 15.66 18.5 17 26 1020.5 0 34.2 35.9 65.7 173.5 185.6 643.9
04/09 03:29 21.1 85 15.66 18.5 13 17 1020.5 0 34.2 35.9 65.7 173.5 185.6 643.9
04/09 03:20 21.1 84 15.48 18.3 24 32 1020.5 0 33.8 35.5 64.9 171.3 182.9 634.5
04/09 03:10 21.3 84 15.66 18.5 19 24 1020.5 0 34.2 35.8 65.6 173.1 185.1 642.2
04/09 03:00 21.1 83 15.29 18.1 20 30 1020.5 0 33.4 35.2 64.0 169.0 180.1 624.6
04/09 02:50 21.3 84 15.66 18.5 22 30 1020.5 0 34.2 35.8 65.6 173.1 185.1 642.2
04/09 02:40 21.3 84 15.66 18.5 20 30 1020.5 0 34.2 35.8 65.6 173.1 185.1 642.2
04/09 02:30 21.2 84 15.57 18.4 20 28 1020.5 0 34.0 35.6 65.2 172.2 184.0 638.3
04/09 02:20 21.2 84 15.57 18.4 24 28 1020.5 0 34.0 35.6 65.2 172.2 184.0 638.3
04/09 02:10 21.2 85 15.75 18.6 19 26 1020.6 0 34.4 36.0 66.1 174.4 186.7 647.8
04/09 02:00 21.2 85 15.75 18.6 17 26 1020.7 0 34.4 36.0 66.1 174.4 186.7 647.8
04/09 01:50 21.3 84 15.66 18.5 20 26 1020.7 0 34.2 35.8 65.6 173.1 185.1 642.3
04/09 01:40 21.2 85 15.75 18.6 19 28 1020.8 0 34.4 36.0 66.1 174.5 186.8 647.9
04/09 01:30 21.3 84 15.66 18.5 24 30 1021 0 34.2 35.8 65.6 173.2 185.2 642.4
04/09 01:20 21.2 84 15.57 18.4 22 30 1021 0 34.0 35.7 65.3 172.3 184.1 638.6
04/09 01:10 21.3 84 15.66 18.5 24 30 1021.2 0 34.2 35.8 65.6 173.2 185.2 642.5
04/09 01:00 21.2 84 15.57 18.4 26 32 1021.3 0 34.0 35.7 65.3 172.3 184.1 638.7
04/09 00:50 21.3 85 15.84 18.7 26 32 1021.4 0 34.5 36.1 66.4 175.4 187.9 652.0
04/09 00:40 21.4 85 15.93 18.8 26 32 1021.5 0 34.7 36.3 66.8 176.3 189.1 655.9
04/09 00:30 21.1 85 15.66 18.5 26 32 1021.5 0 34.2 35.9 65.8 173.7 185.7 644.3
04/09 00:20 21.3 86 16.03 18.9 26 30 1021.6 0 34.9 36.5 67.3 177.8 190.8 662.1
04/09 00:10 21.3 86 16.03 18.9 26 30 1021.6 0 34.9 36.5 67.3 177.8 190.8 662.1
04/09 00:00 21.2 85 15.75 18.6 26 30 1021.7 0 34.4 36.0 66.1 174.6 186.9 648.3
03/09 23:50 21.3 87 16.22 19 24 28 1021.7 0 35.3 36.9 68.2 180.1 193.7 672.2
03/09 23:40 21.3 85 15.84 18.7 24 30 1021.7 0 34.5 36.2 66.4 175.5 188.0 652.1
03/09 23:30 21.3 85 15.84 18.7 22 30 1021.7 0 34.5 36.2 66.4 175.5 188.0 652.1
03/09 23:20 21.3 86 16.03 18.9 24 30 1021.8 0 34.9 36.5 67.3 177.8 190.9 662.2
03/09 23:10 21.3 86 16.03 18.9 24 30 1021.8 0 34.9 36.5 67.3 177.8 190.9 662.2
03/09 23:00 21.2 85 15.75 18.6 22 28 1021.9 0 34.4 36.0 66.1 174.6 186.9 648.4
03/09 22:50 21.2 85 15.75 18.6 24 30 1022 0 34.4 36.0 66.1 174.6 186.9 648.4
03/09 22:40 21.3 85 15.84 18.7 24 30 1022 0 34.5 36.2 66.5 175.5 188.0 652.3
03/09 22:30 21.3 86 16.03 18.9 24 28 1022 0 34.9 36.5 67.3 177.8 190.9 662.3
03/09 22:20 21.3 85 15.84 18.7 24 30 1021.9 0 34.5 36.2 66.5 175.5 188.0 652.2
03/09 22:10 21.3 84 15.66 18.5 24 28 1021.9 0 34.2 35.8 65.6 173.3 185.3 642.8
03/09 22:00 21.2 85 15.75 18.6 22 28 1022 0 34.4 36.0 66.1 174.6 186.9 648.4
03/09 21:50 21.4 86 16.12 19 24 28 1022 0 35.1 36.6 67.7 178.7 192.0 666.1
03/09 21:40 21.2 86 15.94 18.8 24 30 1022 0 34.8 36.4 67.0 177.0 189.8 658.4
03/09 21:30 21.2 86 15.94 18.8 24 30 1021.9 0 34.8 36.4 67.0 176.9 189.8 658.3
03/09 21:20 21.2 86 15.94 18.8 24 30 1021.8 0 34.8 36.4 67.0 176.9 189.8 658.3
03/09 21:10 21.1 86 15.84 18.7 24 30 1021.7 0 34.6 36.2 66.6 175.9 188.5 653.8
03/09 21:00 21.1 86 15.84 18.7 24 28 1021.7 0 34.6 36.2 66.6 175.9 188.5 653.8
03/09 20:50 21.4 85 15.93 18.8 20 26 1021.7 0 34.7 36.3 66.8 176.3 189.1 656.0
03/09 20:40 21.1 85 15.66 18.5 22 28 1021.7 0 34.2 35.9 65.8 173.7 185.8 644.4
03/09 20:30 21.3 86 16.03 18.9 20 26 1021.6 0 34.9 36.5 67.3 177.8 190.8 662.1
03/09 20:20 21.3 85 15.84 18.7 20 28 1021.6 0 34.5 36.1 66.4 175.4 188.0 652.1
03/09 20:10 21.3 86 16.03 18.9 20 28 1021.4 0 34.9 36.5 67.3 177.7 190.8 662.0
03/09 20:00 21.2 86 15.94 18.8 20 30 1021.3 0 34.8 36.4 67.0 176.9 189.7 658.1
03/09 19:50 21.1 87 16.03 18.9 19 28 1021.1 0 35.0 36.6 67.5 178.2 191.3 663.6
03/09 19:40 21.2 86 15.94 18.8 20 28 1021.1 0 34.8 36.4 67.0 176.8 189.7 658.0
03/09 19:30 21.1 86 15.84 18.7 17 26 1021 0 34.6 36.2 66.6 175.8 188.4 653.5
03/09 19:20 21.2 87 16.12 18.9 19 24 1020.9 0 35.1 36.7 67.8 179.0 192.4 667.4
03/09 19:10 21.1 87 16.03 18.9 20 24 1020.9 0 35.0 36.6 67.5 178.1 191.2 663.5
03/09 19:00 21 87 15.94 18.8 19 24 1020.8 0 34.8 36.4 67.1 177.2 190.1 659.6
03/09 18:50 20.9 88 16.03 18.8 20 22 1020.8 0 35.0 36.6 67.6 178.6 191.7 665.2
03/09 18:40 21 87 15.94 18.8 19 22 1020.7 0 34.8 36.4 67.1 177.2 190.1 659.5
03/09 18:30 20.9 88 16.03 18.8 19 24 1020.6 0 35.0 36.6 67.6 178.6 191.7 665.1
03/09 18:20 20.9 87 15.84 18.7 20 24 1020.6 0 34.6 36.3 66.7 176.2 188.8 655.1
03/09 18:10 21 87 15.94 18.8 20 26 1020.6 0 34.8 36.4 67.1 177.2 190.1 659.5
03/09 18:00 21 87 15.94 18.8 20 26 1020.5 0 34.8 36.4 67.1 177.2 190.1 659.4
03/09 17:50 20.9 87 15.84 18.7 19 22 1020.4 0 34.6 36.3 66.7 176.2 188.8 655.0
03/09 17:40 21 86 15.75 18.6 19 24 1020.4 0 34.4 36.1 66.2 174.9 187.2 649.4
03/09 17:30 21.1 85 15.66 18.5 19 22 1020.4 0 34.2 35.9 65.7 173.5 185.6 643.8
03/09 17:20 21.6 86 16.31 19.2 19 24 1020.3 0 35.5 36.8 68.3 180.3 194.1 673.6
03/09 17:10 21.5 83 15.65 18.5 20 24 1020.3 0 34.1 35.7 65.3 172.5 184.5 639.9
03/09 17:00 21.8 83 15.92 18.8 19 24 1020.3 0 34.7 36.0 66.3 175.1 187.7 651.4
03/09 16:50 22 80 15.53 18.4 19 22 1020.2 0 33.8 35.2 64.3 169.9 181.4 629.5
03/09 16:40 22.1 79 15.42 18.3 17 20 1020.2 0 33.6 35.0 63.8 168.4 179.6 623.0
03/09 16:30 22.2 78 15.31 18.2 13 19 1020.3 0 33.3 34.8 63.2 166.8 177.8 616.6
03/09 16:20 22.5 78 15.58 18.5 13 15 1020.3 0 33.9 35.1 64.2 169.4 181.0 628.0
03/09 16:10 22.6 76 15.27 18.2 11 15 1020.3 0 33.2 34.5 62.7 165.5 176.2 611.4
03/09 16:00 22.9 77 15.74 18.7 11 15 1020.4 0 34.2 35.2 64.5 170.4 182.4 632.9
03/09 15:50 22.9 75 15.33 18.2 11 17 1020.4 0 33.3 34.5 62.7 165.6 176.4 612.1
03/09 15:40 23 76 15.62 18.5 11 17 1020.4 0 33.9 35.0 63.9 168.8 180.4 626.0
03/09 15:30 23.4 75 15.77 18.7 11 15 1020.3 0 34.2 35.1 64.3 169.7 181.6 630.3
03/09 15:20 23.5 74 15.65 18.6 11 15 1020.4 0 33.9 34.8 63.6 168.1 179.6 623.4
03/09 15:10 23.3 75 15.68 18.6 11 17 1020.4 0 34.0 35.0 63.9 168.9 180.6 626.6
03/09 15:00 23.3 74 15.47 18.4 13 17 1020.5 0 33.6 34.6 63.0 166.4 177.5 616.0
03/09 14:50 23.5 72 15.23 18.2 11 15 1020.5 0 33.1 34.1 61.8 163.2 173.6 602.4
03/09 14:40 23.7 72 15.4 18.4 11 15 1020.6 0 33.4 34.3 62.4 164.7 175.6 609.3
03/09 14:30 23.9 70 15.14 18.1 11 15 1020.7 0 32.8 33.8 61.1 161.3 171.4 594.9
03/09 14:20 23.7 73 15.61 18.6 13 17 1020.7 0 33.8 34.7 63.3 167.2 178.6 619.9
03/09 14:10 24.5 71 15.89 18.9 13 17 1020.8 0 34.4 34.9 63.9 168.8 180.8 627.5
03/09 14:00 23.8 72 15.49 18.4 13 19 1020.8 0 33.6 34.5 62.7 165.6 176.7 613.1
03/09 13:50 24.2 71 15.62 18.6 13 17 1021.1 0 33.8 34.5 63.0 166.3 177.7 616.6
03/09 13:40 24.1 70 15.32 18.3 11 17 1021.1 0 33.2 34.0 61.8 163.0 173.6 602.4
03/09 13:30 24.4 71 15.8 18.8 13 17 1021.2 0 34.2 34.8 63.6 168.0 179.8 624.0
03/09 13:20 24.3 72 15.93 18.9 13 19 1021.3 0 34.5 35.0 64.3 169.7 181.9 631.4
03/09 13:10 24.3 71 15.71 18.7 13 17 1021.6 0 34.0 34.7 63.3 167.2 178.8 620.5
03/09 13:00 24 70 15.23 18.2 13 19 1021.6 0 33.0 33.9 61.5 162.2 172.6 599.0
03/09 12:50 24.4 70 15.58 18.6 11 17 1021.7 0 33.7 34.4 62.7 165.5 176.7 613.3
03/09 12:40 24.4 71 15.8 18.8 13 17 1021.7 0 34.2 34.8 63.6 168.0 179.9 624.2
03/09 12:30 23.9 71 15.36 18.3 13 17 1021.9 0 33.3 34.2 62.1 164.0 174.7 606.3

Last Refresh: 04-Sep-2026 04:48:42

Bureau of Meteorology